createdAt,value
2024-05-09T00:00:39.984Z,14.48
2024-05-09T00:03:09.297Z,14.76
2024-05-09T00:05:37.581Z,14.77
2024-05-09T00:08:04.952Z,14.83
2024-05-09T00:10:36.586Z,14.80
2024-05-09T00:13:06.506Z,14.61
2024-05-09T00:15:34.048Z,14.76
2024-05-09T00:18:01.718Z,13.75
2024-05-09T00:20:36.822Z,14.66
2024-05-09T00:23:07.562Z,14.60
2024-05-09T00:25:35.300Z,14.84
2024-05-09T00:28:02.813Z,14.44
2024-05-09T00:30:34.508Z,14.14
2024-05-09T00:33:08.441Z,14.46
2024-05-09T00:35:36.821Z,14.81
2024-05-09T00:38:04.184Z,14.62
2024-05-09T00:40:41.875Z,14.77
2024-05-09T00:43:12.265Z,14.49
2024-05-09T00:45:40.044Z,14.45
2024-05-09T00:48:09.288Z,13.94
2024-05-09T00:50:40.064Z,14.27
2024-05-09T00:53:10.208Z,14.36
2024-05-09T00:55:38.971Z,14.49
2024-05-09T00:58:09.600Z,14.20
2024-05-09T01:00:39.934Z,14.38
2024-05-09T01:03:13.162Z,14.41
2024-05-09T01:05:42.420Z,14.30
2024-05-09T01:08:10.811Z,13.94
2024-05-09T01:10:38.316Z,14.09
2024-05-09T01:13:06.821Z,14.25
2024-05-09T01:15:35.724Z,14.20
2024-05-09T01:18:09.578Z,14.00
2024-05-09T01:20:41.928Z,13.81
2024-05-09T01:23:12.024Z,14.04
2024-05-09T01:25:39.432Z,14.11
2024-05-09T01:28:06.364Z,14.16
2024-05-09T01:30:35.862Z,13.79
2024-05-09T01:33:09.955Z,14.03
2024-05-09T01:35:41.461Z,13.78
2024-05-09T01:38:10.076Z,13.38
2024-05-09T01:40:39.626Z,13.96
2024-05-09T01:43:08.784Z,13.43
2024-05-09T01:45:36.579Z,13.93
2024-05-09T01:48:04.022Z,13.39
2024-05-09T01:53:00.962Z,13.40
2024-05-09T01:55:27.806Z,13.39
2024-05-09T01:57:54.531Z,13.50
2024-05-09T02:00:30.616Z,13.52
2024-05-09T02:03:05.207Z,13.59
2024-05-09T02:05:32.201Z,13.35
2024-05-09T02:07:59.028Z,13.27
2024-05-09T02:10:32.109Z,13.15
2024-05-09T02:12:59.977Z,13.48
2024-05-09T02:15:26.771Z,13.24
2024-05-09T02:17:53.730Z,13.47
2024-05-09T02:20:30.149Z,13.37
2024-05-09T02:23:04.007Z,13.65
2024-05-09T02:25:31.710Z,12.77
2024-05-09T02:27:58.547Z,13.35
2024-05-09T02:30:35.337Z,13.38
2024-05-09T02:33:06.917Z,12.74
2024-05-09T02:35:34.122Z,13.51
2024-05-09T02:38:01.124Z,12.79
2024-05-09T02:40:35.824Z,13.21
2024-05-09T02:43:06.146Z,13.30
2024-05-09T02:45:33.184Z,13.22
2024-05-09T02:48:01.534Z,13.22
2024-05-09T02:50:37.078Z,13.41
2024-05-09T02:53:13.827Z,13.47
2024-05-09T02:55:42.236Z,13.48
2024-05-09T02:58:10.198Z,13.27
2024-05-09T03:00:40.704Z,13.20
2024-05-09T03:03:12.813Z,13.40
2024-05-09T03:05:42.185Z,13.15
2024-05-09T03:08:09.542Z,13.13
2024-05-09T03:10:38.591Z,12.79
2024-05-09T03:13:12.910Z,13.40
2024-05-09T03:15:40.976Z,13.06
2024-05-09T03:18:09.264Z,13.22
2024-05-09T03:20:37.171Z,13.44
2024-05-09T03:23:06.325Z,13.36
2024-05-09T03:25:33.923Z,13.30
2024-05-09T03:28:00.917Z,12.61
2024-05-09T03:30:38.122Z,13.04
2024-05-09T03:33:13.646Z,13.19
2024-05-09T03:35:41.932Z,13.18
2024-05-09T03:38:09.165Z,13.00
2024-05-09T03:40:36.039Z,13.31
2024-05-09T03:43:02.840Z,12.93
2024-05-09T03:45:29.578Z,13.64
2024-05-09T03:47:56.539Z,13.07
2024-05-09T03:50:30.097Z,13.36
2024-05-09T03:53:02.062Z,13.30
2024-05-09T03:55:29.145Z,13.58
2024-05-09T03:57:55.953Z,12.84
2024-05-09T04:00:31.104Z,13.88
2024-05-09T04:03:06.210Z,13.95
2024-05-09T04:05:35.116Z,13.84
2024-05-09T04:08:02.344Z,13.85
2024-05-09T04:10:33.637Z,13.58
2024-05-09T04:13:02.320Z,13.93
2024-05-09T04:15:29.277Z,14.19
2024-05-09T04:17:56.391Z,14.12
2024-05-09T04:20:34.340Z,13.77
2024-05-09T04:23:15.175Z,13.50
2024-05-09T04:25:44.827Z,13.86
2024-05-09T04:28:12.651Z,13.65
2024-05-09T04:30:41.488Z,13.54
2024-05-09T04:33:12.147Z,13.33
2024-05-09T04:35:44.359Z,13.17
2024-05-09T04:38:12.763Z,13.27
2024-05-09T04:40:39.909Z,13.01
2024-05-09T04:43:13.915Z,13.24
2024-05-09T04:45:41.210Z,12.98
2024-05-09T04:48:08.774Z,13.03
2024-05-09T04:50:38.591Z,13.03
2024-05-09T04:53:09.424Z,13.04
2024-05-09T04:55:37.586Z,12.71
2024-05-09T04:58:05.578Z,13.08
2024-05-09T05:00:37.037Z,12.92
2024-05-09T05:03:08.467Z,13.01
2024-05-09T05:05:41.127Z,13.14
2024-05-09T05:08:15.205Z,13.22
2024-05-09T05:10:43.192Z,12.94
2024-05-09T05:13:20.816Z,13.02
2024-05-09T05:15:57.101Z,12.89
2024-05-09T05:18:26.483Z,13.03
2024-05-09T05:20:54.918Z,12.36
2024-05-09T05:23:22.878Z,12.26
2024-05-09T05:25:53.044Z,12.09
2024-05-09T05:28:21.004Z,12.91
2024-05-09T05:30:47.750Z,12.77
2024-05-09T05:33:18.409Z,12.89
2024-05-09T05:35:45.606Z,12.62
2024-05-09T05:38:12.460Z,12.65
2024-05-09T05:40:40.425Z,12.62
2024-05-09T05:43:09.921Z,12.67
2024-05-09T05:45:37.112Z,12.51
2024-05-09T05:48:06.464Z,12.64
2024-05-09T05:50:36.793Z,12.66
2024-05-09T05:53:09.678Z,12.62
2024-05-09T05:55:39.330Z,12.80
2024-05-09T05:58:12.544Z,12.60
2024-05-09T06:00:41.213Z,12.47
2024-05-09T06:03:10.388Z,13.19
2024-05-09T06:05:43.208Z,12.78
2024-05-09T06:08:10.374Z,13.17
2024-05-09T06:10:39.926Z,13.13
2024-05-09T06:13:12.190Z,12.84
2024-05-09T06:15:40.770Z,13.39
2024-05-09T06:18:09.933Z,13.38
2024-05-09T06:20:39.655Z,13.33
2024-05-09T06:23:07.161Z,13.72
2024-05-09T06:25:34.933Z,13.77
2024-05-09T06:28:02.538Z,13.65
2024-05-09T06:30:37.885Z,13.91
2024-05-09T06:33:08.931Z,13.69
2024-05-09T06:35:36.835Z,13.89
2024-05-09T06:38:04.176Z,13.76
2024-05-09T06:40:37.280Z,13.30
2024-05-09T06:43:18.158Z,14.23
2024-05-09T06:45:50.603Z,14.02
2024-05-09T06:48:19.605Z,14.07
2024-05-09T06:50:47.674Z,14.25
2024-05-09T06:53:15.513Z,14.48
2024-05-09T06:55:43.011Z,14.57
2024-05-09T06:58:09.911Z,14.68
2024-05-09T07:00:39.832Z,14.64
2024-05-09T07:03:13.646Z,14.69
2024-05-09T07:05:42.854Z,14.90
2024-05-09T07:08:10.089Z,14.77
2024-05-09T07:10:37.429Z,14.77
2024-05-09T07:13:12.653Z,14.87
2024-05-09T07:15:40.879Z,14.98
2024-05-09T07:18:12.979Z,15.08
2024-05-09T07:20:40.774Z,15.11
2024-05-09T07:23:11.866Z,15.51
2024-05-09T07:25:40.357Z,15.36
2024-05-09T07:28:12.254Z,15.62
2024-05-09T07:30:39.008Z,15.46
2024-05-09T07:33:06.057Z,15.68
2024-05-09T07:35:33.354Z,15.34
2024-05-09T07:38:00.295Z,15.84
2024-05-09T07:40:34.846Z,15.86
2024-05-09T07:43:14.105Z,15.91
2024-05-09T07:45:50.484Z,16.00
2024-05-09T07:53:39.046Z,16.43
2024-05-09T07:56:09.629Z,17.00
2024-05-09T07:58:37.724Z,17.03
2024-05-09T08:01:04.928Z,17.22
2024-05-09T08:03:31.995Z,17.36
2024-05-09T08:05:58.801Z,17.62
2024-05-09T08:08:25.638Z,17.74
2024-05-09T08:10:52.694Z,17.97
2024-05-09T08:13:19.549Z,18.09
2024-05-09T08:15:46.408Z,18.42
2024-05-09T08:18:13.383Z,18.70
2024-05-09T08:20:41.896Z,18.93
2024-05-09T08:23:08.871Z,18.80
2024-05-09T08:25:35.631Z,19.14
2024-05-09T08:28:04.756Z,19.32
2024-05-09T08:30:36.782Z,19.37
2024-05-09T08:33:05.849Z,19.47
2024-05-09T08:35:34.107Z,19.71
2024-05-09T08:38:03.430Z,20.04
2024-05-09T08:40:35.692Z,20.03
2024-05-09T08:43:07.903Z,20.15
2024-05-09T08:45:36.849Z,20.27
2024-05-09T08:48:07.974Z,20.51
2024-05-09T08:50:40.317Z,20.55
2024-05-09T08:53:08.942Z,20.78
2024-05-09T08:55:40.400Z,20.82
2024-05-09T08:58:16.236Z,20.50
2024-05-09T09:00:44.865Z,21.03
2024-05-09T09:03:16.862Z,21.28
2024-05-09T09:05:56.789Z,21.26
2024-05-09T09:08:25.907Z,21.23
2024-05-09T09:10:57.508Z,21.54
2024-05-09T09:13:24.295Z,21.61
2024-05-09T09:15:52.003Z,21.24
2024-05-09T09:18:19.339Z,21.76
2024-05-09T09:20:46.334Z,21.46
2024-05-09T09:23:13.153Z,21.97
2024-05-09T09:25:40.950Z,22.24
2024-05-09T09:28:08.679Z,22.26
2024-05-09T09:30:39.983Z,22.32
2024-05-09T09:33:09.392Z,22.28
2024-05-09T09:35:36.341Z,22.01
2024-05-09T09:38:05.750Z,22.28
2024-05-09T09:40:39.104Z,22.63
2024-05-09T09:43:18.647Z,22.71
2024-05-09T09:45:49.928Z,22.82
2024-05-09T09:48:17.238Z,22.72
2024-05-09T09:50:45.382Z,22.67
2024-05-09T09:53:12.781Z,22.86
2024-05-09T09:55:40.320Z,22.94
2024-05-09T09:58:09.738Z,22.59
2024-05-09T10:00:39.357Z,22.40
2024-05-09T10:03:06.841Z,22.53
2024-05-09T10:05:34.805Z,22.25
2024-05-09T10:08:06.370Z,22.41
2024-05-09T10:10:35.414Z,22.54
2024-05-09T10:13:05.838Z,22.79
2024-05-09T10:15:52.801Z,22.47
2024-05-09T10:18:27.044Z,23.01
2024-05-09T10:20:56.161Z,22.75
2024-05-09T10:23:34.545Z,22.77
2024-05-09T10:26:04.693Z,22.74
2024-05-09T10:28:34.961Z,22.76
2024-05-09T10:31:16.465Z,22.84
2024-05-09T10:33:49.567Z,22.54
2024-05-09T10:36:25.604Z,22.42
2024-05-09T10:38:54.013Z,22.43
2024-05-09T10:41:22.697Z,22.25
2024-05-09T10:43:50.671Z,22.66
2024-05-09T10:46:19.265Z,22.85
2024-05-09T10:48:47.626Z,22.69
2024-05-09T10:51:17.137Z,22.30
2024-05-09T10:53:48.518Z,22.66
2024-05-09T10:56:16.499Z,22.15
2024-05-09T10:58:43.370Z,22.75
2024-05-09T11:01:11.162Z,22.59
2024-05-09T11:03:39.342Z,22.53
2024-05-09T11:06:07.467Z,22.24
2024-05-09T11:08:36.345Z,21.97
2024-05-09T11:11:07.511Z,22.18
2024-05-09T11:13:37.238Z,22.83
2024-05-09T11:16:07.103Z,22.53
2024-05-09T11:18:38.091Z,22.54
2024-05-09T11:21:13.132Z,22.96
2024-05-09T11:23:40.769Z,22.84
2024-05-09T11:26:07.706Z,23.23
2024-05-09T11:28:34.550Z,23.29
2024-05-09T11:31:10.124Z,23.12
2024-05-09T11:33:39.705Z,23.31
2024-05-09T11:36:08.232Z,23.16
2024-05-09T11:38:35.627Z,23.14
2024-05-09T11:41:03.418Z,22.73
2024-05-09T11:43:30.201Z,23.44
2024-05-09T11:45:57.819Z,23.16
2024-05-09T11:48:26.002Z,23.24
2024-05-09T11:50:54.487Z,22.91
2024-05-09T11:53:21.272Z,22.59
2024-05-09T11:55:48.111Z,23.14
2024-05-09T11:58:17.551Z,23.18
2024-05-09T12:00:45.209Z,22.83
2024-05-09T12:03:12.341Z,23.59
2024-05-09T12:05:39.318Z,23.38
2024-05-09T12:08:07.271Z,23.64
2024-05-09T12:10:35.994Z,23.50
2024-05-09T12:13:05.715Z,23.38
2024-05-09T12:15:36.879Z,23.32
2024-05-09T12:18:05.071Z,23.51
2024-05-09T12:20:37.500Z,23.55
2024-05-09T12:23:08.255Z,23.17
2024-05-09T12:25:36.499Z,23.36
2024-05-09T12:28:04.051Z,23.17
2024-05-09T12:30:36.785Z,23.46
2024-05-09T12:33:12.167Z,23.29
2024-05-09T12:35:40.747Z,23.48
2024-05-09T12:38:09.267Z,23.27
2024-05-09T12:40:38.649Z,21.99
2024-05-09T12:43:09.074Z,23.41
2024-05-09T12:45:37.650Z,23.36
2024-05-09T12:48:07.455Z,23.35
2024-05-09T12:50:35.188Z,23.14
2024-05-09T12:53:03.988Z,23.44
2024-05-09T12:55:41.277Z,23.46
2024-05-09T12:58:17.452Z,23.42
2024-05-09T13:00:45.457Z,23.45
2024-05-09T13:03:12.770Z,23.54
2024-05-09T13:05:41.507Z,23.33
2024-05-09T13:08:08.908Z,23.00
2024-05-09T13:10:36.067Z,23.23
2024-05-09T13:13:02.952Z,23.17
2024-05-09T13:15:30.601Z,23.24
2024-05-09T13:18:00.576Z,23.33
2024-05-09T13:20:33.567Z,23.27
2024-05-09T13:23:03.645Z,23.48
2024-05-09T13:25:30.557Z,23.35
2024-05-09T13:27:58.257Z,23.71
2024-05-09T13:30:34.339Z,23.54
2024-05-09T13:33:07.010Z,23.80
2024-05-09T13:35:35.598Z,23.29
2024-05-09T13:38:03.724Z,23.62
2024-05-09T13:40:34.513Z,23.64
2024-05-09T13:43:06.301Z,23.44
2024-05-09T13:45:34.388Z,23.16
2024-05-09T13:48:06.684Z,23.44
2024-05-09T13:50:36.262Z,23.21
2024-05-09T13:53:08.377Z,23.21
2024-05-09T13:55:39.853Z,23.40
2024-05-09T13:58:08.627Z,23.21
2024-05-09T14:00:44.456Z,23.50
2024-05-09T14:03:20.201Z,23.73
2024-05-09T14:05:50.137Z,23.58
2024-05-09T14:08:19.984Z,23.98
2024-05-09T14:10:48.204Z,23.74
2024-05-09T14:13:16.113Z,23.83
2024-05-09T14:15:43.319Z,23.94
2024-05-09T14:18:13.265Z,23.99
2024-05-09T14:20:41.365Z,23.56
2024-05-09T14:23:08.246Z,23.38
2024-05-09T14:25:38.644Z,23.72
2024-05-09T14:28:08.746Z,23.67
2024-05-09T14:30:37.872Z,23.54
2024-05-09T14:33:07.084Z,23.69
2024-05-09T14:35:35.007Z,23.87
2024-05-09T14:38:02.904Z,23.98
2024-05-09T14:40:40.475Z,23.92
2024-05-09T14:43:15.237Z,24.10
2024-05-09T14:45:43.809Z,24.12
2024-05-09T14:48:11.945Z,24.01
2024-05-09T14:50:40.492Z,23.95
2024-05-09T14:53:13.180Z,24.08
2024-05-09T14:55:42.626Z,23.89
2024-05-09T14:58:11.322Z,24.22
2024-05-09T15:00:47.650Z,23.85
2024-05-09T15:03:21.682Z,24.41
2024-05-09T15:05:50.380Z,24.24
2024-05-09T15:08:18.662Z,24.41
2024-05-09T15:10:46.108Z,23.91
2024-05-09T15:13:16.244Z,23.87
2024-05-09T15:15:44.033Z,24.23
2024-05-09T15:20:38.202Z,23.85
2024-05-09T15:23:06.407Z,24.00
2024-05-09T15:25:34.449Z,23.95
2024-05-09T15:28:01.547Z,24.04
2024-05-09T15:30:31.812Z,23.92
2024-05-09T15:33:01.419Z,24.02
2024-05-09T15:35:28.555Z,23.44
2024-05-09T15:37:56.213Z,24.04
2024-05-09T15:40:34.386Z,23.90
2024-05-09T15:43:06.560Z,23.87
2024-05-09T15:45:34.279Z,23.72
2024-05-09T15:48:02.197Z,24.07
2024-05-09T15:50:36.771Z,24.00
2024-05-09T15:53:07.690Z,23.53
2024-05-09T15:55:35.580Z,23.99
2024-05-09T15:58:04.063Z,24.11
2024-05-09T16:00:38.900Z,23.54
2024-05-09T16:03:09.864Z,23.85
2024-05-09T16:05:37.753Z,23.51
2024-05-09T16:08:05.856Z,23.65
2024-05-09T16:10:34.595Z,23.95
2024-05-09T16:13:03.227Z,23.43
2024-05-09T16:15:30.747Z,23.48
2024-05-09T16:17:57.839Z,23.77
2024-05-09T16:20:34.417Z,23.50
2024-05-09T16:23:07.823Z,23.27
2024-05-09T16:25:34.919Z,23.58
2024-05-09T16:28:06.269Z,23.65
2024-05-09T16:30:36.509Z,23.29
2024-05-09T16:33:04.944Z,23.73
2024-05-09T16:35:32.775Z,23.72
2024-05-09T16:38:02.757Z,23.79
2024-05-09T16:40:51.117Z,23.73
2024-05-09T16:43:18.070Z,23.54
2024-05-09T16:45:45.115Z,23.57
2024-05-09T16:48:14.275Z,23.70
2024-05-09T16:50:41.339Z,23.66
2024-05-09T16:53:08.642Z,23.53
2024-05-09T16:55:36.064Z,23.44
2024-05-09T16:58:03.849Z,23.83
2024-05-09T17:00:39.427Z,23.82
2024-05-09T17:03:13.079Z,23.71
2024-05-09T17:05:41.505Z,23.70
2024-05-09T17:08:09.865Z,23.77
2024-05-09T17:10:37.103Z,23.51
2024-05-09T17:13:06.082Z,23.65
2024-05-09T17:15:34.856Z,23.33
2024-05-09T17:18:02.480Z,23.70
2024-05-09T17:20:34.145Z,23.70
2024-05-09T17:23:05.652Z,23.35
2024-05-09T17:31:15.783Z,23.65
2024-05-09T17:33:43.032Z,23.57
2024-05-09T17:36:10.154Z,23.14
2024-05-09T17:38:36.940Z,23.18
2024-05-09T17:41:03.745Z,23.44
2024-05-09T17:43:30.663Z,23.21
2024-05-09T17:45:57.795Z,23.38
2024-05-09T17:48:24.750Z,23.30
2024-05-09T17:50:51.865Z,23.22
2024-05-09T17:53:20.155Z,23.25
2024-05-09T17:55:48.230Z,23.26
2024-05-09T17:58:15.418Z,23.45
2024-05-09T18:00:42.883Z,22.78
2024-05-09T18:03:14.174Z,23.18
2024-05-09T18:05:43.086Z,22.59
2024-05-09T18:08:10.993Z,23.21
2024-05-09T18:10:40.680Z,23.47
2024-05-09T18:13:09.121Z,23.43
2024-05-09T18:15:37.283Z,22.77
2024-05-09T18:18:05.560Z,23.13
2024-05-09T18:20:41.495Z,23.36
2024-05-09T18:23:14.339Z,23.32
2024-05-09T18:25:42.296Z,22.91
2024-05-09T18:28:09.545Z,23.11
2024-05-09T18:30:37.376Z,23.20
2024-05-09T18:33:07.173Z,23.15
2024-05-09T18:35:35.252Z,22.89
2024-05-09T18:38:02.771Z,22.90
2024-05-09T18:40:34.424Z,22.96
2024-05-09T18:43:05.522Z,22.70
2024-05-09T18:45:33.860Z,22.81
2024-05-09T18:48:01.646Z,22.64
2024-05-09T18:50:34.955Z,22.52
2024-05-09T18:53:12.911Z,22.43
2024-05-09T18:55:43.809Z,22.51
2024-05-09T18:58:11.401Z,22.54
2024-05-09T19:00:41.129Z,22.44
2024-05-09T19:03:12.811Z,22.38
2024-05-09T19:05:43.165Z,22.39
2024-05-09T19:08:11.286Z,22.20
2024-05-09T19:10:39.559Z,22.14
2024-05-09T19:13:11.540Z,22.11
2024-05-09T19:15:40.636Z,22.16
2024-05-09T19:18:08.498Z,22.02
2024-05-09T19:20:36.659Z,22.04
2024-05-09T19:23:05.991Z,22.16
2024-05-09T19:25:33.377Z,22.11
2024-05-09T19:28:00.910Z,21.79
2024-05-09T19:30:36.856Z,21.55
2024-05-09T19:33:08.339Z,21.90
2024-05-09T19:35:35.411Z,21.84
2024-05-09T19:38:02.602Z,21.66
2024-05-09T19:40:32.254Z,21.72
2024-05-09T19:43:05.388Z,21.57
2024-05-09T19:45:34.404Z,21.42
2024-05-09T19:48:02.310Z,21.44
2024-05-09T19:50:37.850Z,20.91
2024-05-09T19:53:10.103Z,21.03
2024-05-09T19:55:37.343Z,20.98
2024-05-09T19:58:06.995Z,20.87
2024-05-09T20:00:36.923Z,21.06
2024-05-09T20:03:06.566Z,21.03
2024-05-09T20:05:34.070Z,20.65
2024-05-09T20:08:01.068Z,20.78
2024-05-09T20:10:32.431Z,20.91
2024-05-09T20:13:02.029Z,20.56
2024-05-09T20:15:28.972Z,20.74
2024-05-09T20:17:56.451Z,20.34
2024-05-09T20:20:33.288Z,20.61
2024-05-09T20:23:06.136Z,20.33
2024-05-09T20:25:33.054Z,20.28
2024-05-09T20:28:00.131Z,20.12
2024-05-09T20:30:32.074Z,20.14
2024-05-09T20:33:03.400Z,20.29
2024-05-09T20:35:34.999Z,20.26
2024-05-09T20:38:04.114Z,20.00
2024-05-09T20:40:36.009Z,20.08
2024-05-09T20:43:07.056Z,20.13
2024-05-09T20:45:34.544Z,19.76
2024-05-09T20:48:01.968Z,19.82
2024-05-09T20:50:36.897Z,19.93
2024-05-09T20:53:09.429Z,19.88
2024-05-09T20:55:36.681Z,19.84
2024-05-09T20:58:03.609Z,19.49
2024-05-09T21:00:38.889Z,19.36
2024-05-09T21:03:09.541Z,19.53
2024-05-09T21:05:36.783Z,19.20
2024-05-09T21:08:04.017Z,19.41
2024-05-09T21:10:33.308Z,19.42
2024-05-09T21:13:02.574Z,19.31
2024-05-09T21:15:30.095Z,19.04
2024-05-09T21:17:56.999Z,19.36
2024-05-09T21:20:30.545Z,19.23
2024-05-09T21:22:59.018Z,19.14
2024-05-09T21:25:25.891Z,19.02
2024-05-09T21:27:53.318Z,18.96
2024-05-09T21:30:32.164Z,19.08
2024-05-09T21:33:14.539Z,18.75
2024-05-09T21:35:43.437Z,18.96
2024-05-09T21:38:10.507Z,18.71
2024-05-09T21:40:38.181Z,18.67
2024-05-09T21:43:07.400Z,18.42
2024-05-09T21:45:35.321Z,18.74
2024-05-09T21:48:06.557Z,18.43
2024-05-09T21:50:39.870Z,18.32
2024-05-09T21:53:09.511Z,18.65
2024-05-09T21:55:36.370Z,18.36
2024-05-09T21:58:03.688Z,18.09
2024-05-09T22:00:37.011Z,18.24
2024-05-09T22:03:09.954Z,18.01
2024-05-09T22:05:39.060Z,18.15
2024-05-09T22:08:06.435Z,18.01
2024-05-09T22:10:35.605Z,18.10
2024-05-09T22:13:05.202Z,17.99
2024-05-09T22:15:35.892Z,17.89
2024-05-09T22:18:04.297Z,17.96
2024-05-09T22:20:36.993Z,18.01
2024-05-09T22:23:06.078Z,17.91
2024-05-09T22:25:33.477Z,17.97
2024-05-09T22:28:02.448Z,17.67
2024-05-09T22:32:59.220Z,17.88
2024-05-09T22:35:26.332Z,17.50
2024-05-09T22:37:53.060Z,17.81
2024-05-09T22:40:28.957Z,17.51
2024-05-09T22:43:05.439Z,17.41
2024-05-09T22:45:32.674Z,17.58
2024-05-09T22:47:59.836Z,17.30
2024-05-09T22:50:30.798Z,17.29
2024-05-09T22:52:59.834Z,17.37
2024-05-09T22:55:26.587Z,17.07
2024-05-09T22:57:53.354Z,17.38
2024-05-09T23:00:29.133Z,17.09
2024-05-09T23:03:02.846Z,17.12
2024-05-09T23:05:32.080Z,17.18
2024-05-09T23:08:00.657Z,17.30
2024-05-09T23:10:32.406Z,17.01
2024-05-09T23:13:03.807Z,17.25
2024-05-09T23:15:30.854Z,17.15
2024-05-09T23:17:58.399Z,16.48
2024-05-09T23:20:35.812Z,17.14
2024-05-09T23:23:06.694Z,16.97
2024-05-09T23:25:33.630Z,16.86
2024-05-09T23:28:00.605Z,17.01
2024-05-09T23:30:34.867Z,16.99
2024-05-09T23:33:06.150Z,17.10
2024-05-09T23:35:33.112Z,16.85
2024-05-09T23:37:59.874Z,16.62
2024-05-09T23:40:35.066Z,16.55
2024-05-09T23:43:06.591Z,16.90
2024-05-09T23:45:33.552Z,16.10
2024-05-09T23:48:00.827Z,16.49
2024-05-09T23:50:34.412Z,16.49
2024-05-09T23:53:04.792Z,16.39
2024-05-09T23:55:32.320Z,16.31
2024-05-09T23:57:59.654Z,16.58
